Time;durP1;ratioP1;P1;durP2;ratioP2;P2;SDS_P1;SDS_P2;PMS_P1;PMS_P2;Temp;Humidity;BMP_temperature;BMP_pressure;BME280_temperature;BME280_humidity;BME280_pressure;Samples;Min_cycle;Max_cycle;Signal;HPM_P1;HPM_P2
2022/08/13 00:02:16;;;;;;;9.20;4.60;;;15.60;70.50;;;;;;5029858;28;20810;-70
2022/08/13 00:04:46;;;;;;;12.47;5.30;;;15.60;69.80;;;;;;5030029;28;20669;-70
2022/08/13 00:07:14;;;;;;;22.23;5.67;;;15.70;69.40;;;;;;5023480;28;20483;-71
2022/08/13 00:09:43;;;;;;;12.43;4.67;;;15.80;69.10;;;;;;5035581;28;20483;-70
2022/08/13 00:15:01;;;;;;;15.30;5.23;;;15.90;68.30;;;;;;5034759;28;20491;-70
2022/08/13 00:17:33;;;;;;;4.53;4.13;;;17.30;70.30;;;;;;5033946;28;20924;-71
2022/08/13 00:20:01;;;;;;;5.53;4.33;;;15.90;68.80;;;;;;5018494;28;20480;-71
2022/08/13 00:22:29;;;;;;;4.77;4.30;;;15.90;68.30;;;;;;5022458;28;20502;-71
2022/08/13 00:24:57;;;;;;;8.20;3.90;;;15.80;69.20;;;;;;5032601;28;20476;-70
2022/08/13 00:27:24;;;;;;;6.50;5.80;;;15.80;69.00;;;;;;5023541;28;20565;-70
2022/08/13 00:29:54;;;;;;;7.33;5.10;;;;;;;;;;5034288;28;20482;-71
2022/08/13 00:32:21;;;;;;;28.20;6.30;;;15.60;69.70;;;;;;5033746;28;20560;-70
2022/08/13 00:34:49;;;;;;;5.23;4.73;;;;;;;;;;5032007;28;20936;-70
2022/08/13 00:37:16;;;;;;;8.03;5.90;;;15.30;71.00;;;;;;5028743;28;20478;-70
2022/08/13 00:39:44;;;;;;;4.97;4.57;;;15.20;71.40;;;;;;5021301;28;20879;-70
2022/08/13 00:42:11;;;;;;;10.80;5.40;;;15.10;71.20;;;;;;5007430;28;20483;-71
2022/08/13 00:44:39;;;;;;;5.33;4.33;;;15.10;70.90;;;;;;5030319;28;20810;-71
2022/08/13 00:49:52;;;;;;;8.77;4.10;;;15.20;71.10;;;;;;5020382;28;20507;-70
2022/08/13 00:52:19;;;;;;;5.70;5.03;;;15.10;71.00;;;;;;5030577;28;21247;-71
2022/08/13 00:54:49;;;;;;;6.07;4.57;;;15.10;71.50;;;;;;5030057;28;20951;-70
2022/08/13 00:57:16;;;;;;;7.60;6.47;;;15.00;71.70;;;;;;5023275;28;20491;-69
2022/08/13 00:59:43;;;;;;;14.17;4.97;;;14.90;71.60;;;;;;5031991;28;20520;-70
2022/08/13 01:02:11;;;;;;;7.40;5.93;;;14.90;71.40;;;;;;5026722;28;20845;-70
2022/08/13 01:04:39;;;;;;;9.20;4.87;;;14.90;71.30;;;;;;5033361;28;20468;-70
2022/08/13 01:07:06;;;;;;;11.63;3.80;;;14.80;71.60;;;;;;5029698;28;21949;-71
2022/08/13 01:09:33;;;;;;;9.17;4.77;;;14.90;71.80;;;;;;5030005;28;20488;-71
2022/08/13 01:12:02;;;;;;;12.70;4.80;;;14.90;71.90;;;;;;5030739;28;20562;-71
2022/08/13 01:14:32;;;;;;;11.70;4.90;;;14.90;71.40;;;;;;5026871;28;20526;-70
2022/08/13 01:17:02;;;;;;;4.50;4.10;;;;;;;;;;5029573;28;20516;-70
2022/08/13 01:19:31;;;;;;;6.10;4.57;;;;;;;;;;5032481;28;20504;-70
2022/08/13 01:22:00;;;;;;;25.73;4.90;;;14.80;72.10;;;;;;5030543;28;20475;-69
2022/08/13 01:24:28;;;;;;;11.23;5.03;;;14.60;72.70;;;;;;5030994;28;21055;-70
2022/08/13 01:26:55;;;;;;;14.70;4.60;;;14.40;73.00;;;;;;5029163;28;20476;-70
2022/08/13 01:29:23;;;;;;;8.83;6.23;;;14.30;73.40;;;;;;5027625;28;20482;-70
2022/08/13 01:31:51;;;;;;;5.17;4.60;;;14.20;73.40;;;;;;5030602;28;20476;-70
2022/08/13 01:34:18;;;;;;;26.73;7.00;;;;;;;;;;5029044;28;20478;-70
2022/08/13 01:36:49;;;;;;;5.37;4.87;;;14.00;74.30;;;;;;5028149;28;20884;-70
2022/08/13 01:39:17;;;;;;;12.67;6.70;;;13.90;74.80;;;;;;5028465;28;21019;-71
2022/08/13 01:41:44;;;;;;;12.40;4.80;;;13.80;75.30;;;;;;5026945;28;20472;-71
2022/08/13 01:44:11;;;;;;;5.50;5.00;;;13.90;75.30;;;;;;5027811;28;20545;-71
2022/08/13 01:52:04;;;;;;;6.70;4.60;;;14.00;74.00;;;;;;5022286;28;20503;-71
2022/08/13 01:54:33;;;;;;;5.40;4.10;;;13.90;74.30;;;;;;5021781;28;20864;-71
2022/08/13 01:57:01;;;;;;;4.80;3.93;;;14.00;74.30;;;;;;5023657;28;20492;-70
2022/08/13 01:59:28;;;;;;;5.70;4.87;;;14.00;74.30;;;;;;5031470;28;21157;-71
2022/08/13 02:01:57;;;;;;;5.97;5.47;;;14.00;74.10;;;;;;5026979;28;20551;-71
2022/08/13 02:04:24;;;;;;;7.83;6.00;;;14.00;74.50;;;;;;5029500;28;20555;-71
2022/08/13 02:06:51;;;;;;;4.57;4.10;;;14.00;74.30;;;;;;5026379;28;20479;-70
2022/08/13 02:09:18;;;;;;;7.57;6.77;;;13.90;74.40;;;;;;5027214;28;20479;-70
2022/08/13 02:11:47;;;;;;;5.10;4.50;;;13.90;74.50;;;;;;5036579;28;20483;-71
2022/08/13 02:14:16;;;;;;;23.10;6.97;;;13.80;74.70;;;;;;5034788;28;20475;-71
2022/08/13 02:16:42;;;;;;;13.23;4.70;;;13.70;75.00;;;;;;5032786;28;21311;-70
2022/08/13 02:19:09;;;;;;;6.00;4.17;;;13.70;74.70;;;;;;5033209;28;20478;-70
2022/08/13 02:21:38;;;;;;;16.43;4.13;;;;;;;;;;5032713;28;20702;-70
2022/08/13 02:24:08;;;;;;;16.77;5.83;;;13.50;75.40;;;;;;5034326;28;20511;-71
2022/08/13 02:26:38;;;;;;;6.00;4.63;;;13.50;75.40;;;;;;5032104;28;20522;-70
2022/08/13 02:29:09;;;;;;;12.03;4.60;;;13.60;75.00;;;;;;5034436;28;20487;-71
2022/08/13 02:31:37;;;;;;;6.47;4.57;;;13.60;75.40;;;;;;5034656;28;20492;-70
2022/08/13 02:34:05;;;;;;;9.00;5.10;;;13.60;75.10;;;;;;5034206;28;20475;-70
2022/08/13 02:36:31;;;;;;;5.97;4.30;;;13.70;74.50;;;;;;5031238;28;20476;-71
2022/08/13 02:39:00;;;;;;;6.13;5.50;;;13.70;74.60;;;;;;5033847;28;20484;-71
2022/08/13 02:41:42;;;;;;;11.23;6.40;;;13.80;74.60;;;;;;5032942;28;20487;-70
2022/08/13 02:44:11;;;;;;;14.30;5.20;;;13.80;74.20;;;;;;5033680;28;20494;-70
2022/08/13 02:46:39;;;;;;;7.00;5.93;;;13.80;74.40;;;;;;5034145;28;21229;-71
2022/08/13 02:49:06;;;;;;;7.30;4.67;;;13.80;74.30;;;;;;5031794;28;20480;-71
2022/08/13 02:51:33;;;;;;;5.10;4.60;;;13.80;74.20;;;;;;5037937;28;20499;-71
2022/08/13 02:54:00;;;;;;;4.83;4.20;;;13.70;75.10;;;;;;5029316;28;20473;-71
2022/08/13 02:56:28;;;;;;;7.67;5.80;;;13.70;75.10;;;;;;5029579;28;20833;-71
2022/08/13 02:58:55;;;;;;;6.90;4.00;;;13.60;75.50;;;;;;5029749;28;20506;-71
2022/08/13 03:01:24;;;;;;;7.50;5.90;;;13.60;75.90;;;;;;5031967;28;20491;-71
2022/08/13 03:03:51;;;;;;;6.50;4.70;;;13.70;76.10;;;;;;5033181;28;20515;-71
2022/08/13 03:06:19;;;;;;;8.70;7.20;;;13.70;76.00;;;;;;5037034;28;20495;-71
2022/08/13 03:08:49;;;;;;;4.87;4.10;;;13.70;75.70;;;;;;5041729;28;20478;-69
2022/08/13 03:11:16;;;;;;;6.73;6.07;;;13.70;76.10;;;;;;5027189;28;20548;-71
2022/08/13 03:13:47;;;;;;;6.20;4.13;;;13.80;75.90;;;;;;5039351;28;20475;-70
2022/08/13 03:16:17;;;;;;;17.47;6.40;;;13.80;76.10;;;;;;5038640;28;20476;-71
2022/08/13 03:18:46;;;;;;;5.53;5.03;;;13.80;76.40;;;;;;5033274;28;21160;-70
2022/08/13 03:21:17;;;;;;;14.93;6.30;;;13.80;76.00;;;;;;5045598;28;20856;-71
2022/08/13 03:23:45;;;;;;;12.83;5.00;;;13.80;76.30;;;;;;5050827;28;20549;-71
2022/08/13 03:26:12;;;;;;;7.63;4.63;;;13.80;76.00;;;;;;5038409;28;20561;-71
2022/08/13 03:28:39;;;;;;;6.43;4.63;;;13.90;76.20;;;;;;5035353;28;20498;-71
2022/08/13 03:31:06;;;;;;;4.63;4.23;;;;;;;;;;5036656;28;20891;-71
2022/08/13 03:33:33;;;;;;;10.27;4.77;;;13.80;76.10;;;;;;5042263;28;20948;-71
2022/08/13 03:36:02;;;;;;;4.70;4.20;;;13.80;76.80;;;;;;5027514;28;20843;-71
2022/08/13 03:38:29;;;;;;;15.50;6.00;;;13.80;76.60;;;;;;5028675;28;21000;-71
2022/08/13 03:41:03;;;;;;;8.93;5.40;;;13.80;76.30;;;;;;5049039;28;20503;-71
2022/08/13 03:43:30;;;;;;;17.63;5.37;;;13.70;76.20;;;;;;5039042;28;20476;-71
2022/08/13 03:45:58;;;;;;;6.60;4.63;;;13.80;76.30;;;;;;5036312;28;20555;-71
2022/08/13 03:48:26;;;;;;;9.23;6.40;;;13.80;75.80;;;;;;5036078;28;20507;-71
2022/08/13 03:50:55;;;;;;;16.53;4.90;;;13.70;75.90;;;;;;5036564;28;20472;-71
2022/08/13 03:53:23;;;;;;;8.87;7.07;;;13.70;76.30;;;;;;5024056;28;20479;-69
2022/08/13 03:55:50;;;;;;;26.63;7.67;;;13.70;76.50;;;;;;5025737;28;20491;-69
2022/08/13 03:58:18;;;;;;;20.27;6.00;;;13.70;76.10;;;;;;5020539;28;20490;-69
2022/08/13 04:00:47;;;;;;;6.90;4.53;;;13.70;75.90;;;;;;5030959;28;20522;-70
2022/08/13 04:03:19;;;;;;;9.10;6.57;;;13.60;75.60;;;;;;5050267;28;20557;-69
2022/08/13 04:05:46;;;;;;;4.70;4.20;;;13.50;75.30;;;;;;5026601;28;20480;-69
2022/08/13 04:08:14;;;;;;;16.10;6.37;;;13.40;75.70;;;;;;5033060;28;20480;-69
2022/08/13 04:10:43;;;;;;;6.27;4.07;;;13.20;75.80;;;;;;5031211;28;20991;-69
2022/08/13 04:13:14;;;;;;;7.73;3.90;;;13.20;75.70;;;;;;5043518;28;20857;-70
2022/08/13 04:15:42;;;;;;;5.47;3.83;;;;;;;;;;5032134;28;20491;-70
2022/08/13 04:18:13;;;;;;;21.03;4.30;;;13.00;76.50;;;;;;5022719;28;20477;-69
2022/08/13 04:20:41;;;;;;;8.37;4.13;;;12.90;77.00;;;;;;5039174;28;21008;-69
2022/08/13 04:23:16;;;;;;;11.70;4.47;;;12.90;77.30;;;;;;5032516;28;20499;-69
2022/08/13 04:25:44;;;;;;;7.83;5.47;;;;;;;;;;5036923;28;20799;-68
2022/08/13 04:28:11;;;;;;;7.93;5.27;;;12.80;77.00;;;;;;5026164;28;20880;-68
2022/08/13 04:30:41;;;;;;;16.87;5.10;;;12.80;77.10;;;;;;5041756;28;20510;-68
2022/08/13 04:33:10;;;;;;;11.40;4.93;;;12.60;77.80;;;;;;5034895;28;20841;-69
2022/08/13 04:35:38;;;;;;;10.43;4.30;;;12.60;77.10;;;;;;5027312;28;20487;-69
2022/08/13 04:38:06;;;;;;;11.83;4.60;;;12.70;77.30;;;;;;5033190;28;20865;-69
2022/08/13 04:40:34;;;;;;;7.60;4.57;;;12.70;77.50;;;;;;5035227;28;20887;-68
2022/08/13 04:43:02;;;;;;;14.07;5.20;;;12.80;77.40;;;;;;5030332;28;20503;-69
2022/08/13 04:45:30;;;;;;;15.70;5.73;;;12.80;77.30;;;;;;5022234;28;20479;-69
2022/08/13 04:47:59;;;;;;;6.93;5.70;;;12.80;76.80;;;;;;5036278;28;20485;-68
2022/08/13 04:50:26;;;;;;;15.23;5.80;;;12.80;76.50;;;;;;5025778;28;20682;-69
2022/08/13 04:52:54;;;;;;;16.90;5.93;;;12.80;77.40;;;;;;5019943;28;21266;-69
2022/08/13 04:55:20;;;;;;;41.03;8.90;;;12.80;77.30;;;;;;5027167;28;20495;-69
2022/08/13 04:57:48;;;;;;;21.33;4.77;;;12.80;77.30;;;;;;5037436;28;20483;-69
2022/08/13 05:00:17;;;;;;;18.90;6.23;;;;;;;;;;5036970;28;21379;-69
2022/08/13 05:02:45;;;;;;;9.03;5.43;;;;;;;;;;5045547;28;20482;-69
2022/08/13 05:05:12;;;;;;;9.47;6.40;;;12.90;78.40;;;;;;5034591;28;20492;-68
2022/08/13 05:07:39;;;;;;;16.13;4.87;;;12.90;78.30;;;;;;5045091;28;20642;-70
2022/08/13 05:10:07;;;;;;;16.50;6.20;;;13.00;78.30;;;;;;5038385;28;20827;-68
2022/08/13 05:12:35;;;;;;;6.70;4.23;;;;;;;;;;5040842;28;20472;-70
2022/08/13 05:15:02;;;;;;;7.60;5.13;;;13.10;78.00;;;;;;5042658;28;20504;-69
2022/08/13 05:17:32;;;;;;;11.33;6.70;;;13.10;78.10;;;;;;5027968;28;20878;-69
2022/08/13 05:19:59;;;;;;;14.87;5.43;;;13.10;78.00;;;;;;5030207;28;20497;-69
2022/08/13 05:22:29;;;;;;;15.00;8.30;;;13.10;77.70;;;;;;5023971;28;20845;-69
2022/08/13 05:24:56;;;;;;;13.73;6.27;;;13.20;78.20;;;;;;5029662;28;20886;-69
2022/08/13 05:27:23;;;;;;;51.30;10.60;;;13.30;78.90;;;;;;5022969;28;20484;-69
2022/08/13 05:29:50;;;;;;;10.83;5.67;;;13.40;79.80;;;;;;5028972;28;20480;-70
2022/08/13 05:32:17;;;;;;;18.63;8.87;;;13.50;79.30;;;;;;5044487;28;20563;-69
2022/08/13 05:34:48;;;;;;;46.77;7.67;;;13.70;79.60;;;;;;5035728;28;20533;-69
2022/08/13 05:37:16;;;;;;;24.20;8.53;;;13.80;80.60;;;;;;5037818;28;20931;-69
2022/08/13 05:39:43;;;;;;;12.80;6.27;;;13.90;81.00;;;;;;5028118;28;20516;-69
2022/08/13 05:42:10;;;;;;;21.27;7.57;;;14.10;81.50;;;;;;5028841;28;20584;-69
2022/08/13 05:44:37;;;;;;;15.93;5.70;;;;;;;;;;5035845;28;20483;-69
2022/08/13 05:47:06;;;;;;;15.80;5.30;;;14.50;80.80;;;;;;5023363;28;20503;-69
2022/08/13 05:49:33;;;;;;;12.50;3.97;;;14.60;81.60;;;;;;5027944;28;20495;-69
2022/08/13 05:52:02;;;;;;;7.63;5.93;;;14.70;82.10;;;;;;5042683;28;20567;-69
2022/08/13 05:54:31;;;;;;;9.87;6.80;;;14.90;82.10;;;;;;5025173;28;20572;-70
2022/08/13 05:56:58;;;;;;;21.00;6.70;;;15.00;80.80;;;;;;5052376;28;20484;-69
2022/08/13 06:04:56;;;;;;;12.80;5.30;;;15.80;79.20;;;;;;5038148;28;20482;-68
2022/08/13 06:07:24;;;;;;;25.53;7.53;;;16.00;78.50;;;;;;5028177;28;20842;-69
2022/08/13 06:09:51;;;;;;;13.20;6.10;;;16.20;77.90;;;;;;5040854;28;20481;-70
2022/08/13 06:12:18;;;;;;;10.80;7.20;;;16.40;77.80;;;;;;5042494;28;21036;-70
2022/08/13 06:14:45;;;;;;;12.17;4.80;;;16.50;77.80;;;;;;5043648;28;20484;-70
2022/08/13 06:17:13;;;;;;;7.53;6.27;;;16.80;77.40;;;;;;5037521;28;20844;-69
2022/08/13 06:19:44;;;;;;;8.50;5.60;;;16.90;77.30;;;;;;5025057;28;21577;-70
2022/08/13 06:22:13;;;;;;;11.57;5.43;;;17.10;77.10;;;;;;5035180;28;20507;-71
2022/08/13 06:24:43;;;;;;;8.27;5.67;;;17.40;76.20;;;;;;5034358;28;20492;-70
2022/08/13 06:27:11;;;;;;;8.90;4.90;;;17.60;76.40;;;;;;5036279;28;20492;-70
2022/08/13 06:29:41;;;;;;;10.80;4.70;;;17.80;75.70;;;;;;5044532;28;21003;-70
2022/08/13 06:32:08;;;;;;;15.43;4.70;;;18.00;75.10;;;;;;5026226;28;20477;-70
2022/08/13 06:34:35;;;;;;;23.17;5.30;;;18.30;75.50;;;;;;5045838;28;20487;-70
2022/08/13 06:37:03;;;;;;;7.03;4.83;;;18.50;75.70;;;;;;5036279;28;20464;-70
2022/08/13 06:39:31;;;;;;;7.57;5.30;;;18.80;74.80;;;;;;5027146;28;20482;-70
2022/08/13 06:42:02;;;;;;;4.63;4.13;;;19.10;74.00;;;;;;5042210;28;20577;-69
2022/08/13 06:44:31;;;;;;;8.43;6.40;;;19.40;74.10;;;;;;5031906;28;20508;-69
2022/08/13 06:47:02;;;;;;;10.80;4.63;;;19.60;72.70;;;;;;5030880;28;20845;-69
2022/08/13 06:49:28;;;;;;;12.57;4.50;;;20.00;72.10;;;;;;5040359;28;20492;-69
2022/08/13 06:51:57;;;;;;;8.63;4.00;;;20.40;71.30;;;;;;5040681;28;20476;-69
2022/08/13 06:54:24;;;;;;;11.80;7.83;;;20.70;71.00;;;;;;5026701;28;20499;-70
2022/08/13 06:56:53;;;;;;;5.63;4.80;;;21.10;70.10;;;;;;5039339;28;20475;-70
2022/08/13 06:59:24;;;;;;;8.33;6.63;;;21.60;68.80;;;;;;5042182;28;20552;-71
2022/08/13 07:01:59;;;;;;;5.80;5.20;;;22.10;68.20;;;;;;5046482;28;21345;-71
2022/08/13 07:04:26;;;;;;;12.53;6.83;;;22.50;66.50;;;;;;5046351;28;20476;-71
2022/08/13 07:06:54;;;;;;;4.53;4.13;;;22.90;65.90;;;;;;5036796;28;20495;-71
2022/08/13 07:09:21;;;;;;;15.43;6.33;;;23.30;65.30;;;;;;5046742;28;20484;-69
2022/08/13 07:11:48;;;;;;;4.73;4.27;;;23.60;64.10;;;;;;5038366;28;20482;-70
2022/08/13 07:14:16;;;;;;;9.90;6.57;;;24.00;62.80;;;;;;5039193;28;20480;-72
2022/08/13 07:16:45;;;;;;;13.17;4.57;;;24.20;62.00;;;;;;5028214;28;20906;-70
2022/08/13 07:19:13;;;;;;;4.53;3.87;;;24.50;62.70;;;;;;5026084;28;20490;-70
2022/08/13 07:21:42;;;;;;;7.37;4.53;;;24.70;62.30;;;;;;5032122;28;20480;-69
2022/08/13 07:24:10;;;;;;;12.00;4.37;;;24.90;60.60;;;;;;5037164;28;20480;-71
2022/08/13 07:26:37;;;;;;;5.00;4.40;;;25.00;60.10;;;;;;5038223;28;21032;-71
2022/08/13 07:29:08;;;;;;;6.23;4.30;;;;;;;;;;5030677;28;20541;-70
2022/08/13 07:31:41;;;;;;;7.93;4.30;;;25.30;59.20;;;;;;5032765;28;20513;-69
2022/08/13 07:34:09;;;;;;;4.40;4.00;;;25.40;59.60;;;;;;5036893;28;20464;-70
2022/08/13 07:36:38;;;;;;;13.30;3.87;;;25.60;59.20;;;;;;5045979;28;20518;-70
2022/08/13 07:39:11;;;;;;;4.23;3.83;;;25.80;59.10;;;;;;5035356;28;20480;-71
2022/08/13 07:41:41;;;;;;;7.43;4.97;;;26.00;58.20;;;;;;5025448;28;20491;-70
2022/08/13 07:44:12;;;;;;;8.07;3.67;;;26.10;57.70;;;;;;5032539;28;20489;-70
2022/08/13 07:46:42;;;;;;;4.63;4.20;;;26.10;57.60;;;;;;5027483;28;20488;-70
2022/08/13 07:49:12;;;;;;;22.93;5.03;;;26.30;57.20;;;;;;5029322;28;20465;-70
2022/08/13 07:51:39;;;;;;;7.23;4.07;;;;;;;;;;5039082;28;20887;-70
2022/08/13 07:54:06;;;;;;;4.40;3.67;;;26.60;57.20;;;;;;5012465;28;20493;-70
2022/08/13 07:56:33;;;;;;;14.57;3.70;;;26.80;57.20;;;;;;5040969;28;20568;-71
2022/08/13 07:59:02;;;;;;;4.37;3.90;;;27.00;56.30;;;;;;5029268;28;20831;-69
2022/08/13 08:01:29;;;;;;;5.47;4.97;;;27.20;56.40;;;;;;5027493;28;21043;-71
2022/08/13 08:03:59;;;;;;;23.57;5.50;;;27.40;55.60;;;;;;5036713;28;20479;-71
2022/08/13 08:06:27;;;;;;;10.87;8.20;;;27.60;55.80;;;;;;5039144;28;20471;-71
2022/08/13 08:08:55;;;;;;;4.53;3.97;;;27.80;55.60;;;;;;5036150;28;20494;-71
2022/08/13 08:14:27;;;;;;;14.53;7.00;;;28.40;55.10;;;;;;4980199;28;20473;-70
2022/08/13 08:16:54;;;;;;;8.73;4.67;;;28.60;54.00;;;;;;4971116;28;20492;-70
2022/08/13 08:19:20;;;;;;;25.43;8.70;;;28.60;53.30;;;;;;5005682;28;20480;-70
2022/08/13 08:21:49;;;;;;;14.63;5.00;;;28.70;53.10;;;;;;5034499;28;20925;-70
2022/08/13 08:24:17;;;;;;;10.20;5.87;;;28.70;53.00;;;;;;5035840;28;20480;-71
2022/08/13 08:26:47;;;;;;;9.47;4.63;;;28.70;52.50;;;;;;5034236;28;20867;-70
2022/08/13 08:29:15;;;;;;;17.00;4.00;;;28.80;53.60;;;;;;5040766;28;20512;-71
2022/08/13 08:31:42;;;;;;;10.60;4.80;;;28.90;52.70;;;;;;5040788;28;20508;-71
2022/08/13 08:34:11;;;;;;;5.00;4.10;;;;;;;;;;5030615;28;20467;-71
2022/08/13 08:36:42;;;;;;;10.10;4.90;;;29.20;52.70;;;;;;5036697;28;20485;-71
2022/08/13 08:44:56;;;;;;;17.87;3.83;;;29.50;50.40;;;;;;5063417;28;20515;-72
2022/08/13 08:47:30;;;;;;;12.00;7.73;;;29.50;49.20;;;;;;5056670;28;20482;-72
2022/08/13 08:49:59;;;;;;;12.00;3.33;;;29.50;49.00;;;;;;5061504;28;20466;-72
2022/08/13 08:53:19;;;;;;;13.20;6.43;;;29.70;49.40;;;;;;5061069;28;20474;-72
2022/08/13 08:55:17;;;;;;;20.30;5.10;;;;;;;;;;5047984;28;20476;-72
2022/08/13 08:57:46;;;;;;;13.23;4.43;;;30.00;48.70;;;;;;5060488;28;20489;-71
2022/08/13 09:00:15;;;;;;;7.10;4.00;;;30.10;48.70;;;;;;5055745;28;21042;-71
2022/08/13 09:02:43;;;;;;;20.27;3.97;;;;;;;;;;5056389;28;20536;-70
2022/08/13 09:05:13;;;;;;;10.43;4.93;;;30.20;48.40;;;;;;5056529;28;20547;-71
2022/08/13 09:07:41;;;;;;;15.83;5.17;;;30.10;48.50;;;;;;5047023;28;20487;-70
2022/08/13 09:10:10;;;;;;;17.73;4.60;;;30.20;48.30;;;;;;5056850;28;20571;-72
2022/08/13 09:12:40;;;;;;;14.87;4.33;;;30.30;47.90;;;;;;5058733;28;20564;-72
2022/08/13 09:15:07;;;;;;;15.87;4.53;;;;;;;;;;5054944;28;20610;-73
2022/08/13 09:17:35;;;;;;;5.97;2.90;;;30.40;48.50;;;;;;5058002;28;20464;-72
2022/08/13 09:20:02;;;;;;;5.57;2.90;;;30.40;48.40;;;;;;5055524;28;20549;-70
2022/08/13 09:22:29;;;;;;;7.33;3.13;;;;;;;;;;5061052;28;20491;-72
2022/08/13 09:24:58;;;;;;;2.73;2.50;;;30.50;47.00;;;;;;5060406;28;20514;-70
2022/08/13 09:27:27;;;;;;;10.23;3.80;;;30.60;48.20;;;;;;5059299;28;20811;-71
2022/08/13 09:29:56;;;;;;;11.87;3.37;;;30.70;47.70;;;;;;5060634;28;20475;-69
2022/08/13 09:32:24;;;;;;;9.13;4.90;;;30.80;47.20;;;;;;5056712;28;20482;-70
2022/08/13 09:34:51;;;;;;;12.23;4.90;;;30.80;47.60;;;;;;5052607;28;20537;-69
2022/08/13 09:37:18;;;;;;;14.77;4.47;;;31.00;47.60;;;;;;5049839;28;20491;-70
2022/08/13 09:39:50;;;;;;;7.60;3.97;;;31.20;47.30;;;;;;5053848;28;20495;-69
2022/08/13 09:42:23;;;;;;;4.27;3.87;;;31.40;47.60;;;;;;5044951;28;20494;-70
2022/08/13 09:44:53;;;;;;;12.67;2.17;;;31.70;46.80;;;;;;5049644;28;20480;-70
2022/08/13 09:47:21;;;;;;;4.63;3.20;;;31.80;46.60;;;;;;5058736;28;20467;-71
2022/08/13 09:49:48;;;;;;;10.33;3.93;;;32.00;46.30;;;;;;5056157;28;20494;-70
2022/08/13 09:52:15;;;;;;;11.77;6.17;;;32.10;46.00;;;;;;5049282;28;20815;-70
2022/08/13 09:54:42;;;;;;;12.43;3.73;;;32.00;46.00;;;;;;5053417;28;20909;-70
2022/08/13 09:57:09;;;;;;;5.40;3.70;;;32.00;46.30;;;;;;5045294;28;20484;-69
2022/08/13 09:59:37;;;;;;;4.20;2.30;;;32.10;46.40;;;;;;5057237;28;20478;-73
2022/08/13 10:02:08;;;;;;;7.43;2.63;;;32.00;44.40;;;;;;5056477;28;20958;-72
2022/08/13 10:04:37;;;;;;;3.50;2.00;;;32.00;44.60;;;;;;5055071;28;20628;-73
2022/08/13 10:07:05;;;;;;;3.10;2.40;;;32.00;45.20;;;;;;5050694;28;20613;-71
2022/08/13 10:09:33;;;;;;;6.00;2.23;;;32.10;44.30;;;;;;5056482;28;20747;-71
2022/08/13 10:12:01;;;;;;;13.77;2.97;;;31.80;44.90;;;;;;5054706;28;20829;-72
2022/08/13 10:14:27;;;;;;;4.97;4.37;;;31.80;45.00;;;;;;5058718;28;20479;-75
2022/08/13 10:16:54;;;;;;;2.63;2.13;;;32.00;45.80;;;;;;5056081;28;20479;-71
2022/08/13 10:19:21;;;;;;;8.90;2.80;;;32.10;44.50;;;;;;5056216;28;20483;-73
2022/08/13 10:21:49;;;;;;;3.73;3.40;;;31.80;44.40;;;;;;5052211;28;20855;-73
2022/08/13 10:24:16;;;;;;;7.70;4.57;;;31.80;43.30;;;;;;5056150;28;20483;-69
2022/08/13 10:26:43;;;;;;;11.13;3.80;;;31.80;43.90;;;;;;5052236;28;20479;-72
2022/08/13 10:29:10;;;;;;;3.83;3.50;;;31.60;42.50;;;;;;5052861;28;20986;-69
2022/08/13 10:31:37;;;;;;;8.80;2.93;;;;;;;;;;5057565;28;20467;-70
2022/08/13 10:34:05;;;;;;;13.97;2.83;;;31.50;44.30;;;;;;5054796;28;20485;-68
2022/08/13 10:36:33;;;;;;;3.60;2.63;;;31.70;43.70;;;;;;5051768;28;20486;-69
2022/08/13 10:39:02;;;;;;;9.93;3.80;;;31.50;43.10;;;;;;5056538;28;20477;-70
2022/08/13 10:41:29;;;;;;;3.43;1.60;;;31.70;45.00;;;;;;5060892;28;20474;-68
2022/08/13 10:43:59;;;;;;;2.70;2.47;;;31.60;42.00;;;;;;5058280;28;20494;-69
2022/08/13 10:46:30;;;;;;;2.77;2.57;;;31.70;42.30;;;;;;5057789;28;21092;-69
2022/08/13 10:48:58;;;;;;;2.60;2.40;;;31.80;42.90;;;;;;5054695;28;20542;-70
2022/08/13 10:51:25;;;;;;;4.93;4.13;;;31.40;41.80;;;;;;5061817;28;21246;-69
2022/08/13 10:54:01;;;;;;;4.03;3.00;;;31.40;42.10;;;;;;5052243;28;20513;-70
2022/08/13 10:56:31;;;;;;;13.00;3.10;;;31.80;41.80;;;;;;5056155;28;20470;-68
2022/08/13 10:59:00;;;;;;;8.83;2.30;;;31.90;42.50;;;;;;5056956;28;20489;-73
2022/08/13 11:01:27;;;;;;;17.73;4.03;;;;;;;;;;5056975;28;20493;-73
2022/08/13 11:03:57;;;;;;;5.30;2.07;;;32.10;41.60;;;;;;5062537;28;20999;-72
2022/08/13 11:06:27;;;;;;;6.00;3.23;;;;;;;;;;5057026;28;20487;-73
2022/08/13 11:08:57;;;;;;;16.43;2.77;;;31.90;42.20;;;;;;5054054;28;20493;-72
2022/08/13 11:11:25;;;;;;;14.87;4.50;;;;;;;;;;5054301;28;20501;-73
2022/08/13 11:13:53;;;;;;;7.27;2.10;;;32.20;42.20;;;;;;5060976;28;20915;-73
2022/08/13 11:19:14;;;;;;;7.03;2.20;;;32.50;41.60;;;;;;5058595;28;20482;-73
2022/08/13 11:21:40;;;;;;;4.93;1.73;;;32.50;40.90;;;;;;5057788;28;20491;-72
2022/08/13 11:24:07;;;;;;;5.30;3.07;;;32.20;39.40;;;;;;5050651;28;20472;-71
2022/08/13 11:26:34;;;;;;;18.43;3.03;;;32.60;41.30;;;;;;5058688;28;20520;-74
2022/08/13 11:29:03;;;;;;;5.17;1.77;;;32.80;40.60;;;;;;5057238;28;20475;-72
2022/08/13 11:31:30;;;;;;;3.67;2.13;;;32.80;40.90;;;;;;5057645;28;20467;-71
2022/08/13 11:33:56;;;;;;;24.57;4.43;;;32.90;40.30;;;;;;5053526;28;20471;-72
2022/08/13 11:36:23;;;;;;;5.27;2.43;;;32.80;40.00;;;;;;5055429;28;20486;-71
2022/08/13 11:38:51;;;;;;;3.50;1.90;;;33.10;40.70;;;;;;5058898;28;20459;-70
2022/08/13 11:41:17;;;;;;;17.83;3.53;;;33.00;40.50;;;;;;5061289;28;20471;-70
2022/08/13 11:43:44;;;;;;;9.43;2.40;;;33.00;40.40;;;;;;5058162;28;20476;-71
2022/08/13 11:46:12;;;;;;;8.90;2.80;;;33.10;40.50;;;;;;5060915;28;21056;-71
2022/08/13 11:48:40;;;;;;;14.63;2.83;;;33.20;40.80;;;;;;5051538;28;20670;-71
2022/08/13 11:51:06;;;;;;;7.87;2.13;;;33.20;40.10;;;;;;5054480;28;20473;-71
2022/08/13 11:53:33;;;;;;;3.27;2.43;;;33.30;40.30;;;;;;5060826;28;20461;-72
2022/08/13 11:56:00;;;;;;;12.60;2.40;;;33.30;39.70;;;;;;5063745;28;20474;-71
2022/08/13 11:58:27;;;;;;;3.03;2.40;;;33.30;39.20;;;;;;5048469;28;20477;-70
2022/08/13 12:00:54;;;;;;;3.40;2.00;;;33.30;39.90;;;;;;5055781;28;20483;-71
2022/08/13 12:03:22;;;;;;;25.03;3.30;;;33.30;39.20;;;;;;5054491;28;20491;-72
2022/08/13 12:05:49;;;;;;;5.73;2.20;;;33.20;39.50;;;;;;5052154;28;20489;-71
2022/08/13 12:08:19;;;;;;;4.10;2.17;;;33.30;39.10;;;;;;5044690;28;20996;-71
2022/08/13 12:10:47;;;;;;;12.83;2.00;;;33.50;39.20;;;;;;5056289;28;20483;-72
2022/08/13 12:13:14;;;;;;;13.77;2.70;;;33.50;38.60;;;;;;5047961;28;20573;-72
2022/08/13 12:15:42;;;;;;;8.80;2.33;;;33.60;38.50;;;;;;5056022;28;20502;-73
2022/08/13 12:18:12;;;;;;;12.90;2.30;;;33.90;39.20;;;;;;5052794;28;20491;-72
2022/08/13 12:20:41;;;;;;;2.10;1.87;;;33.90;39.30;;;;;;5055558;28;20487;-70
2022/08/13 12:23:08;;;;;;;7.83;2.10;;;34.10;39.60;;;;;;5055927;28;20505;-71
2022/08/13 12:25:35;;;;;;;4.77;1.80;;;34.20;39.30;;;;;;5040657;28;20885;-71
2022/08/13 12:28:10;;;;;;;8.10;2.17;;;33.80;39.40;;;;;;5039451;28;20484;-72
2022/08/13 12:30:37;;;;;;;29.40;3.00;;;;;;;;;;5053194;28;20470;-72
2022/08/13 12:33:05;;;;;;;8.13;2.33;;;33.30;38.60;;;;;;5056022;28;20445;-71
2022/08/13 12:35:32;;;;;;;10.77;3.20;;;33.50;39.60;;;;;;5055656;28;20475;-70
2022/08/13 12:38:00;;;;;;;9.90;2.43;;;33.70;40.90;;;;;;5040626;28;20468;-71
2022/08/13 12:40:27;;;;;;;5.80;2.73;;;33.90;40.40;;;;;;5072268;28;20478;-72
2022/08/13 12:42:54;;;;;;;8.00;2.47;;;34.00;39.60;;;;;;5057300;28;21376;-71
2022/08/13 12:45:21;;;;;;;13.80;3.20;;;34.20;39.10;;;;;;5056711;28;20475;-71
2022/08/13 12:47:47;;;;;;;6.53;1.97;;;34.20;39.00;;;;;;5048615;28;20485;-71
2022/08/13 12:50:14;;;;;;;8.07;2.57;;;33.40;37.70;;;;;;5055479;28;20889;-72
2022/08/13 12:52:41;;;;;;;16.60;2.63;;;33.40;38.80;;;;;;5052275;28;20480;-71
2022/08/13 12:55:10;;;;;;;3.70;2.00;;;33.50;40.20;;;;;;5054592;28;20777;-71
2022/08/13 12:57:39;;;;;;;11.33;2.40;;;;;;;;;;5053924;28;20483;-70
2022/08/13 13:00:09;;;;;;;11.43;2.97;;;33.70;40.00;;;;;;5050795;28;20466;-70
2022/08/13 13:02:38;;;;;;;8.60;2.40;;;33.80;39.70;;;;;;5051202;28;20515;-75
2022/08/13 13:05:06;;;;;;;2.50;2.30;;;;;;;;;;5059521;28;20933;-72
2022/08/13 13:07:33;;;;;;;4.00;2.50;;;33.10;38.30;;;;;;5052148;28;20490;-71
2022/08/13 13:10:00;;;;;;;2.40;1.80;;;33.10;39.60;;;;;;5056275;28;20866;-70
2022/08/13 13:12:29;;;;;;;8.83;3.60;;;32.90;39.70;;;;;;5045341;28;20493;-70
2022/08/13 13:14:56;;;;;;;5.20;2.30;;;33.10;41.20;;;;;;5064834;28;20462;-70
2022/08/13 13:17:23;;;;;;;2.30;2.10;;;33.40;40.60;;;;;;5044064;28;20895;-70
2022/08/13 13:19:49;;;;;;;6.73;2.20;;;33.20;40.50;;;;;;5062709;28;20780;-70
2022/08/13 13:22:16;;;;;;;7.67;2.87;;;33.50;41.30;;;;;;5062165;28;20941;-71
2022/08/13 13:24:43;;;;;;;10.33;2.70;;;33.70;40.40;;;;;;5055451;28;20461;-71